METAR Data
IDs: Format: Raw Decoded Include TAF

Data at: 0541 UTC 03 Jul 2022

EPSY 030530Z 01006KT CAVOK 16/13 Q1023